Time;durP1;ratioP1;P1;durP2;ratioP2;P2;SDS_P1;SDS_P2;PMS_P1;PMS_P2;Temp;Humidity;BMP_temperature;BMP_pressure;BME280_temperature;BME280_humidity;BME280_pressure;Samples;Min_cycle;Max_cycle;Signal;HPM_P1;HPM_P2
2022/07/11 00:00:14;;;;;;;5.13;4.43;;;;;;;17.65;71.49;102169.25;3598211;39;20051;-61
2022/07/11 00:02:40;;;;;;;7.05;5.05;;;;;;;17.64;72.42;102175.69;3594887;39;20346;-61
2022/07/11 00:05:09;;;;;;;6.63;4.93;;;;;;;17.62;72.60;102172.19;3586888;39;20084;-63
2022/07/11 00:07:35;;;;;;;11.63;5.22;;;;;;;17.59;72.66;102177.84;3595672;39;20054;-62
2022/07/11 00:10:01;;;;;;;7.45;4.50;;;;;;;17.57;72.33;102172.53;3595628;39;20087;-62
2022/07/11 00:12:27;;;;;;;8.73;5.20;;;;;;;17.53;72.80;102175.53;3596961;39;20055;-63
2022/07/11 00:14:54;;;;;;;9.68;5.70;;;;;;;17.41;73.07;102152.78;3596416;39;20063;-63
2022/07/11 00:17:20;;;;;;;7.82;4.70;;;;;;;17.49;73.19;102165.88;3587466;39;20070;-63
2022/07/11 00:19:46;;;;;;;7.60;5.28;;;;;;;17.44;73.55;102170.75;3595337;39;20063;-63
2022/07/11 00:22:12;;;;;;;9.43;4.88;;;;;;;17.42;73.74;102164.56;3597424;39;20100;-63
2022/07/11 00:24:38;;;;;;;6.57;4.80;;;;;;;17.42;73.56;102161.84;3597534;39;20067;-62
2022/07/11 00:27:04;;;;;;;8.15;5.57;;;;;;;17.38;73.70;102159.34;3598511;39;20111;-63
2022/07/11 00:29:31;;;;;;;8.43;5.60;;;;;;;17.34;73.83;102156.91;3599048;39;20100;-63
2022/07/11 00:31:58;;;;;;;8.43;5.25;;;;;;;17.29;73.81;102149.09;3599664;39;20060;-63
2022/07/11 00:34:24;;;;;;;8.93;5.53;;;;;;;17.31;73.83;102143.53;3599942;39;20059;-62
2022/07/11 00:36:50;;;;;;;12.00;6.03;;;;;;;17.28;73.77;102154.63;3596948;39;20390;-63
2022/07/11 00:39:16;;;;;;;9.40;5.32;;;;;;;17.26;74.13;102146.59;3599381;39;20059;-63
2022/07/11 00:41:41;;;;;;;7.07;4.95;;;;;;;17.18;74.46;102143.53;3600115;39;20108;-63
2022/07/11 00:44:07;;;;;;;11.25;6.00;;;;;;;17.18;74.79;102144.38;3600365;39;20081;-63
2022/07/11 00:46:33;;;;;;;7.50;5.85;;;;;;;17.15;74.74;102154.59;3597477;39;20095;-63
2022/07/11 00:48:59;;;;;;;8.85;5.78;;;;;;;17.12;74.70;102149.38;3598321;39;20068;-63
2022/07/11 00:51:27;;;;;;;7.53;5.82;;;;;;;17.11;75.09;102153.06;3598195;39;20057;-63
2022/07/11 00:53:56;;;;;;;10.05;6.40;;;;;;;17.07;75.50;102151.56;3597998;39;20071;-63
2022/07/11 00:56:29;;;;;;;13.00;6.38;;;;;;;17.00;75.35;102151.09;3600094;39;20398;-63
2022/07/11 00:58:56;;;;;;;10.38;6.25;;;;;;;16.98;75.90;102152.16;3589775;39;20125;-63
2022/07/11 01:01:22;;;;;;;9.82;6.40;;;;;;;16.95;75.50;102150.53;3596469;39;20165;-62
2022/07/11 01:03:49;;;;;;;9.68;6.20;;;;;;;16.94;75.34;102146.94;3596500;39;21674;-63
2022/07/11 01:06:14;;;;;;;10.43;6.43;;;;;;;16.92;75.40;102143.44;3602533;39;20353;-62
2022/07/11 01:08:41;;;;;;;11.38;6.43;;;;;;;16.92;75.63;102142.59;3599815;39;20055;-63
2022/07/11 01:11:15;;;;;;;9.18;6.90;;;;;;;16.75;76.51;102116.56;3598034;39;20347;-62
2022/07/11 01:13:42;;;;;;;10.00;6.65;;;;;;;16.92;76.17;102142.59;3597688;39;20440;-63
2022/07/11 01:16:15;;;;;;;12.23;6.72;;;;;;;16.91;76.50;102141.72;3597166;39;20059;-63
2022/07/11 01:18:47;;;;;;;8.77;6.28;;;;;;;16.90;76.55;102149.97;3596259;39;20050;-63
2022/07/11 01:21:23;;;;;;;11.60;6.70;;;;;;;16.88;76.83;102147.34;3599425;39;20052;-62
2022/07/11 01:23:53;;;;;;;10.23;6.45;;;;;;;16.84;76.32;102140.41;3596794;39;20331;-62
2022/07/11 01:26:21;;;;;;;8.35;6.20;;;;;;;16.81;76.50;102139.72;3601621;39;20059;-62
2022/07/11 01:28:48;;;;;;;8.95;7.15;;;;;;;16.54;77.23;102096.25;3597171;39;20405;-63
2022/07/11 01:31:13;;;;;;;9.95;6.70;;;;;;;16.76;76.73;102134.59;3599499;39;20063;-62
2022/07/11 01:33:40;;;;;;;9.55;6.72;;;;;;;16.73;77.27;102136.63;3601209;39;20131;-62
2022/07/11 01:36:07;;;;;;;9.85;6.70;;;;;;;16.72;77.04;102135.75;3600255;39;20063;-63
2022/07/11 01:38:33;;;;;;;11.30;6.95;;;;;;;16.63;77.04;102128.22;3598871;39;20050;-63
2022/07/11 01:40:59;;;;;;;12.73;6.68;;;;;;;16.66;77.84;102130.72;3596856;39;20298;-63
2022/07/11 01:43:25;;;;;;;11.20;7.03;;;;;;;16.65;77.55;102134.41;3598902;39;20047;-62
2022/07/11 01:45:55;;;;;;;11.98;7.80;;;;;;;16.65;77.59;102128.97;3596577;39;20070;-63
2022/07/11 01:48:21;;;;;;;11.35;7.32;;;;;;;16.65;77.59;102139.81;3599305;39;20073;-62
2022/07/11 01:50:48;;;;;;;10.88;7.60;;;;;;;16.62;77.30;102140.06;3599394;39;20381;-63
2022/07/11 01:53:15;;;;;;;11.00;7.18;;;;;;;16.59;77.56;102140.25;3600270;39;20408;-63
2022/07/11 01:55:42;;;;;;;12.73;7.57;;;;;;;16.52;77.91;102139.78;3597722;39;20120;-62
2022/07/11 01:58:08;;;;;;;11.30;7.50;;;;;;;16.35;78.13;102118.31;3597871;39;20377;-63
2022/07/11 02:00:34;;;;;;;9.82;7.70;;;;;;;16.20;78.30;102101.19;3597625;39;20078;-63
2022/07/11 02:03:00;;;;;;;10.82;7.78;;;;;;;16.42;78.45;102139.50;3596268;39;20068;-63
2022/07/11 02:05:25;;;;;;;11.02;7.95;;;;;;;16.50;78.29;102157.16;3598972;39;20145;-63
2022/07/11 02:10:36;;;;;;;10.45;8.10;;;;;;;16.33;78.43;102128.38;3596247;39;20070;-63
2022/07/11 02:13:02;;;;;;;10.25;7.85;;;;;;;16.42;78.83;102147.66;3598252;39;20071;-62
2022/07/11 02:15:29;;;;;;;13.30;8.57;;;;;;;16.39;78.44;102145.13;3599825;39;20089;-62
2022/07/11 02:17:57;;;;;;;10.82;7.97;;;;;;;16.36;78.66;102133.63;3595922;39;20060;-63
2022/07/11 02:20:24;;;;;;;14.35;9.10;;;;;;;16.35;78.65;102134.59;3596999;39;20059;-63
2022/07/11 02:22:50;;;;;;;13.73;8.05;;;;;;;16.27;79.09;102132.38;3598895;39;20367;-62
2022/07/11 02:25:17;;;;;;;13.18;8.93;;;;;;;16.33;79.68;102140.09;3588853;39;20044;-62
2022/07/11 02:27:43;;;;;;;12.18;8.80;;;;;;;16.34;78.86;102139.16;3596041;39;20082;-62
2022/07/11 02:30:10;;;;;;;14.30;8.98;;;;;;;16.34;79.27;102147.28;3598357;39;20465;-62
2022/07/11 02:32:36;;;;;;;13.00;8.55;;;;;;;16.32;79.82;102142.94;3599690;39;20066;-62
2022/07/11 02:35:02;;;;;;;15.60;9.63;;;;;;;16.33;79.66;102131.97;3599360;39;20879;-62
2022/07/11 02:37:28;;;;;;;15.00;10.32;;;;;;;16.29;79.69;102133.16;3596971;39;20542;-63
2022/07/11 02:39:54;;;;;;;14.40;10.25;;;;;;;16.30;79.62;102139.44;3598189;39;20056;-62
2022/07/11 02:42:19;;;;;;;16.95;10.10;;;;;;;16.31;80.10;102136.63;3598259;39;20528;-63
2022/07/11 02:44:46;;;;;;;14.38;9.43;;;;;;;16.32;80.09;102146.50;3596917;39;20051;-63
2022/07/11 02:47:13;;;;;;;13.38;9.32;;;;;;;16.31;80.00;102136.63;3598708;39;20110;-62
2022/07/11 02:49:38;;;;;;;15.77;10.65;;;;;;;16.28;80.28;102142.25;3597583;39;20091;-62
2022/07/11 02:52:04;;;;;;;14.88;10.48;;;;;;;16.32;79.59;102143.81;3595360;39;20071;-63
2022/07/11 02:54:30;;;;;;;14.10;10.32;;;;;;;16.32;79.44;102143.81;3598513;39;20091;-63
2022/07/11 02:56:56;;;;;;;15.02;9.98;;;;;;;16.25;79.51;102127.06;3595818;39;20318;-63
2022/07/11 02:59:22;;;;;;;14.88;9.32;;;;;;;16.30;79.84;102137.63;3598525;39;20386;-63
2022/07/11 03:01:49;;;;;;;13.95;10.07;;;;;;;16.31;80.26;102136.63;3597631;39;20090;-63
2022/07/11 03:04:16;;;;;;;13.93;9.65;;;;;;;16.31;80.21;102144.78;3597109;39;20063;-65
2022/07/11 03:06:42;;;;;;;19.90;10.35;;;;;;;16.02;80.12;102087.84;3596340;39;20116;-63
2022/07/11 03:09:09;;;;;;;16.80;10.38;;;;;;;16.24;80.62;102124.44;3597323;39;20060;-63
2022/07/11 03:11:36;;;;;;;15.25;10.13;;;;;;;16.30;80.17;102139.44;3597423;39;20070;-62
2022/07/11 03:14:02;;;;;;;14.70;10.63;;;;;;;16.30;79.95;102134.91;3597455;39;20704;-62
2022/07/11 03:16:30;;;;;;;14.38;10.13;;;;;;;16.31;80.24;102136.63;3597393;39;20087;-63
2022/07/11 03:18:57;;;;;;;14.88;10.13;;;;;;;16.38;80.26;102143.41;3597988;39;20137;-63
2022/07/11 03:21:24;;;;;;;14.00;10.40;;;;;;;16.41;79.87;102148.63;3596406;39;20080;-62
2022/07/11 03:23:50;;;;;;;17.38;10.80;;;;;;;16.45;80.54;102150.16;3597812;39;20586;-63
2022/07/11 03:26:17;;;;;;;18.05;11.05;;;;;;;16.47;79.90;102152.78;3597893;39;20067;-62
2022/07/11 03:28:42;;;;;;;15.90;10.13;;;;;;;16.52;80.24;102147.03;3589377;39;20079;-63
2022/07/11 03:31:08;;;;;;;12.50;9.85;;;;;;;16.47;79.16;102145.50;3598441;39;20063;-63
2022/07/11 03:33:33;;;;;;;14.23;9.60;;;;;;;16.31;79.68;102109.50;3598421;39;20290;-63
2022/07/11 03:35:59;;;;;;;11.95;9.27;;;;;;;16.55;79.26;102153.13;3596442;39;20048;-63
2022/07/11 03:38:25;;;;;;;11.55;9.20;;;;;;;16.57;79.02;102155.78;3598205;39;20051;-63
2022/07/11 03:40:50;;;;;;;14.38;9.70;;;;;;;16.58;79.31;102143.94;3597093;39;20056;-64
2022/07/11 03:43:17;;;;;;;12.25;9.88;;;;;;;16.64;78.94;102146.25;3596561;39;20056;-63
2022/07/11 03:45:43;;;;;;;18.90;11.00;;;;;;;16.62;79.47;102151.78;3596197;39;20386;-63
2022/07/11 03:48:10;;;;;;;13.60;9.52;;;;;;;16.63;79.31;102144.50;3596183;39;20055;-63
2022/07/11 03:50:36;;;;;;;15.57;9.75;;;;;;;16.65;78.97;102156.13;3599305;39;20085;-63
2022/07/11 03:53:02;;;;;;;15.80;10.18;;;;;;;16.60;78.99;102142.00;3596825;39;20074;-63
2022/07/11 03:55:28;;;;;;;13.98;10.43;;;;;;;16.74;79.39;102157.34;3597699;39;20396;-63
2022/07/11 03:57:55;;;;;;;17.67;9.68;;;;;;;16.71;78.61;102140.31;3595378;39;20079;-63
2022/07/11 04:00:21;;;;;;;13.70;9.57;;;;;;;16.78;79.13;102150.78;3597714;39;20043;-63
2022/07/11 04:02:48;;;;;;;12.57;9.32;;;;;;;16.81;79.16;102148.75;3599906;39;20374;-63
2022/07/11 04:05:14;;;;;;;14.80;9.73;;;;;;;16.81;79.35;102151.47;3599168;39;20370;-63
2022/07/11 04:07:40;;;;;;;11.82;9.45;;;;;;;16.83;78.52;102152.22;3601999;39;20070;-63
2022/07/11 04:10:06;;;;;;;13.23;9.57;;;;;;;16.84;78.96;102151.25;3598879;39;20353;-63
2022/07/11 04:12:32;;;;;;;11.25;9.45;;;;;;;16.87;78.23;102156.50;3599925;39;20055;-63
2022/07/11 04:14:58;;;;;;;12.20;9.60;;;;;;;16.85;78.18;102146.69;3598039;39;20125;-63
2022/07/11 04:17:23;;;;;;;15.35;10.02;;;;;;;16.89;79.10;102154.53;3599813;39;20075;-63
2022/07/11 04:19:49;;;;;;;14.13;9.48;;;;;;;16.89;79.19;102149.09;3598453;39;20051;-63
2022/07/11 04:22:15;;;;;;;15.15;9.57;;;;;;;16.81;78.43;102134.28;3597968;39;20437;-63
2022/07/11 04:24:40;;;;;;;11.05;8.52;;;;;;;16.92;78.74;102148.88;3597593;39;20390;-63
2022/07/11 04:27:06;;;;;;;14.13;8.82;;;;;;;16.91;78.67;102143.56;3597617;39;20361;-63
2022/07/11 04:29:32;;;;;;;11.10;8.50;;;;;;;16.96;79.09;102149.53;3598333;39;20082;-63
2022/07/11 04:31:57;;;;;;;13.93;8.82;;;;;;;17.04;78.17;102151.75;3597273;39;20047;-63
2022/07/11 04:34:23;;;;;;;10.68;8.55;;;;;;;17.00;77.64;102140.22;3600825;39;20357;-63
2022/07/11 04:36:48;;;;;;;12.80;8.73;;;;;;;17.10;78.49;102151.34;3595454;39;20065;-63
2022/07/11 04:39:14;;;;;;;14.25;7.95;;;;;;;17.13;77.62;102145.69;3597849;39;20054;-63
2022/07/11 04:41:40;;;;;;;12.65;8.20;;;;;;;17.11;78.13;102145.78;3598810;39;20375;-64
2022/07/11 04:44:05;;;;;;;12.85;7.88;;;;;;;17.20;77.25;102157.00;3597394;39;20060;-64
2022/07/11 04:46:31;;;;;;;12.65;8.18;;;;;;;17.14;78.19;102139.28;3598899;39;20082;-64
2022/07/11 04:48:58;;;;;;;11.43;7.55;;;;;;;17.27;77.10;102163.75;3598701;39;20073;-63
2022/07/11 04:51:24;;;;;;;13.48;8.00;;;;;;;17.29;77.90;102162.69;3599438;39;20067;-64
2022/07/11 04:53:50;;;;;;;11.98;7.40;;;;;;;17.31;76.99;102168.88;3597507;39;20048;-63
2022/07/11 04:56:16;;;;;;;10.07;6.85;;;;;;;17.36;76.93;102171.28;3596266;39;20047;-63
2022/07/11 04:58:42;;;;;;;10.70;7.15;;;;;;;17.32;77.04;102157.03;3597700;39;20551;-64
2022/07/11 05:01:08;;;;;;;11.23;7.50;;;;;;;17.39;76.86;102171.06;3580139;39;20075;-63
2022/07/11 05:03:34;;;;;;;11.95;7.28;;;;;;;17.40;77.57;102175.53;3598968;39;20065;-64
2022/07/11 05:06:00;;;;;;;10.02;7.53;;;;;;;17.38;77.04;102167.50;3598203;39;20059;-64
2022/07/11 05:08:26;;;;;;;10.85;7.45;;;;;;;17.42;76.69;102170.88;3596808;39;20850;-64
2022/07/11 05:10:51;;;;;;;10.88;7.35;;;;;;;17.39;76.71;102177.38;3598682;39;20051;-64
2022/07/11 05:13:17;;;;;;;9.55;6.65;;;;;;;17.20;76.51;102144.28;3597709;39;20126;-64
2022/07/11 05:15:44;;;;;;;10.32;7.22;;;;;;;17.47;76.63;102184.13;3598940;39;20466;-64
2022/07/11 05:18:10;;;;;;;8.93;6.93;;;;;;;17.50;76.46;102183.91;3596817;39;20368;-64
2022/07/11 05:20:36;;;;;;;12.50;7.30;;;;;;;17.50;77.02;102189.34;3596496;39;20123;-64
2022/07/11 05:23:02;;;;;;;11.43;6.68;;;;;;;17.49;76.91;102179.47;3598242;39;20059;-64
2022/07/11 05:25:28;;;;;;;9.82;6.88;;;;;;;17.49;77.08;102184.91;3599199;39;20043;-64
2022/07/11 05:27:54;;;;;;;10.65;6.88;;;;;;;17.54;76.37;102193.63;3597148;39;20182;-63
2022/07/11 05:30:20;;;;;;;9.95;7.25;;;;;;;17.57;76.00;102187.94;3598380;39;20338;-64
2022/07/11 05:32:46;;;;;;;10.35;7.45;;;;;;;17.57;76.92;102187.94;3597934;39;20144;-64
2022/07/11 05:35:11;;;;;;;10.35;6.88;;;;;;;17.57;76.82;102191.56;3595077;39;20059;-64
2022/07/11 05:37:37;;;;;;;9.23;6.80;;;;;;;17.61;76.21;102190.34;3596835;39;20087;-64
2022/07/11 05:40:03;;;;;;;8.85;6.40;;;;;;;17.52;76.55;102160.22;3596146;39;20295;-64
2022/07/11 05:42:30;;;;;;;10.30;6.65;;;;;;;17.70;76.73;102185.25;3598240;39;20044;-64
2022/07/11 05:44:56;;;;;;;10.30;7.28;;;;;;;17.03;76.41;102076.66;3596892;39;20150;-62
2022/07/11 05:47:21;;;;;;;12.93;7.60;;;;;;;17.76;77.08;102196.56;3597885;39;20067;-62
2022/07/11 05:49:47;;;;;;;10.32;6.93;;;;;;;17.76;76.41;102191.13;3598014;39;20058;-62
2022/07/11 05:52:12;;;;;;;9.00;6.68;;;;;;;17.85;77.08;102192.34;3599642;39;20054;-62
2022/07/11 05:54:38;;;;;;;9.10;6.50;;;;;;;17.90;76.02;102195.63;3595613;39;20051;-62
2022/07/11 05:57:04;;;;;;;8.75;6.38;;;;;;;18.01;75.43;102198.44;3586219;39;20059;-62
2022/07/11 05:59:30;;;;;;;8.88;7.10;;;;;;;18.03;76.49;102201.06;3594609;39;20713;-62
2022/07/11 06:01:56;;;;;;;8.25;6.72;;;;;;;18.05;76.27;102199.13;3585635;39;20055;-62
2022/07/11 06:04:22;;;;;;;10.90;7.00;;;;;;;18.14;76.05;102201.19;3593843;39;20069;-62
2022/07/11 06:06:47;;;;;;;10.20;6.50;;;;;;;18.19;75.75;102196.25;3598846;39;20060;-62
2022/07/11 06:09:14;;;;;;;10.23;7.35;;;;;;;18.21;75.33;102209.75;3596994;39;20062;-62
2022/07/11 06:11:40;;;;;;;13.02;7.53;;;;;;;18.17;75.52;102209.09;3596747;39;20120;-62
2022/07/11 06:14:06;;;;;;;11.45;7.25;;;;;;;18.20;75.48;102208.00;3596121;39;20125;-62
2022/07/11 06:16:32;;;;;;;13.63;7.70;;;;;;;18.16;75.62;102212.81;3599108;39;20382;-62
2022/07/11 06:18:58;;;;;;;9.68;7.97;;;;;;;18.18;75.44;102215.44;3594494;39;20055;-65
2022/07/11 06:21:25;;;;;;;10.15;8.10;;;;;;;17.99;74.87;102188.66;3599111;39;20108;-64
2022/07/11 06:23:51;;;;;;;9.93;8.20;;;;;;;18.12;76.10;102221.31;3597685;39;20059;-65
2022/07/11 06:26:17;;;;;;;11.88;8.30;;;;;;;18.13;75.82;102221.19;3594336;39;20058;-65
2022/07/11 06:28:44;;;;;;;10.73;8.18;;;;;;;18.14;75.32;102224.78;3595652;39;20047;-65
2022/07/11 06:31:10;;;;;;;12.18;7.95;;;;;;;18.09;75.41;102222.41;3597245;39;20061;-65
2022/07/11 06:33:37;;;;;;;9.50;7.43;;;;;;;18.07;75.94;102230.66;3598360;39;20443;-65
2022/07/11 06:36:04;;;;;;;10.73;8.18;;;;;;;18.11;75.61;102215.00;3597328;39;20128;-65
2022/07/11 06:38:30;;;;;;;11.35;8.85;;;;;;;18.13;75.84;102218.47;3599571;39;20354;-65
2022/07/11 06:40:56;;;;;;;10.38;8.38;;;;;;;18.11;75.13;102220.44;3597108;39;20082;-65
2022/07/11 06:43:23;;;;;;;11.82;8.60;;;;;;;17.99;75.39;102200.41;3594293;39;20060;-65
2022/07/11 06:45:49;;;;;;;9.23;7.70;;;;;;;18.13;75.74;102218.47;3597080;39;20064;-65
2022/07/11 06:48:14;;;;;;;9.25;7.50;;;;;;;18.15;74.80;102221.09;3597018;39;20054;-65
2022/07/11 06:50:40;;;;;;;8.00;7.20;;;;;;;18.13;75.49;102225.75;3601081;39;20097;-65
2022/07/11 06:53:07;;;;;;;8.40;7.35;;;;;;;18.11;75.48;102220.44;3603057;39;20136;-65
2022/07/11 06:55:33;;;;;;;10.30;7.15;;;;;;;18.13;75.29;102217.59;3592201;39;20044;-65
2022/07/11 06:58:00;;;;;;;10.40;6.65;;;;;;;18.15;75.76;102221.97;3597254;39;20130;-64
2022/07/11 07:00:27;;;;;;;7.40;6.10;;;;;;;18.20;74.96;102219.75;3598593;39;20059;-65
2022/07/11 07:02:56;;;;;;;6.68;5.65;;;;;;;18.29;73.84;102213.66;3601079;39;20084;-65
2022/07/11 07:05:23;;;;;;;7.03;5.93;;;;;;;18.36;73.58;102205.03;3599234;39;20070;-65
2022/07/11 07:07:51;;;;;;;7.68;5.20;;;;;;;18.42;74.54;102212.75;3599299;39;20136;-65
2022/07/11 07:10:17;;;;;;;6.78;5.25;;;;;;;18.44;73.90;102199.91;3598427;39;20105;-65
2022/07/11 07:12:44;;;;;;;6.43;5.30;;;;;;;18.47;72.97;102205.16;3599023;39;20059;-65
2022/07/11 07:15:10;;;;;;;6.80;5.22;;;;;;;18.43;73.63;102204.50;3595726;39;20051;-65
2022/07/11 07:17:36;;;;;;;7.15;4.82;;;;;;;18.44;73.15;102205.38;3599490;39;20055;-65
2022/07/11 07:20:03;;;;;;;9.07;5.50;;;;;;;18.47;73.10;102210.59;3598859;39;20305;-65
2022/07/11 07:22:30;;;;;;;6.40;5.80;;;;;;;18.47;73.12;102213.31;3600567;39;20051;-65
2022/07/11 07:24:56;;;;;;;6.30;5.32;;;;;;;18.46;73.55;102209.72;3600579;39;20387;-65
2022/07/11 07:27:21;;;;;;;5.93;5.00;;;;;;;18.50;73.83;102203.06;3599018;39;20059;-65
2022/07/11 07:29:47;;;;;;;6.80;4.97;;;;;;;18.59;73.13;102196.06;3598547;39;20754;-64
2022/07/11 07:32:13;;;;;;;11.50;8.20;;;;;;;18.66;72.16;102199.22;3597607;39;20047;-65
2022/07/11 07:34:38;;;;;;;10.40;6.47;;;;;;;18.69;71.97;102199.84;3598096;39;20039;-65
2022/07/11 07:37:04;;;;;;;7.88;6.18;;;;;;;18.72;72.45;102202.38;3600318;39;20132;-65
2022/07/11 07:39:29;;;;;;;8.88;5.85;;;;;;;18.72;72.43;102199.66;3600372;39;20063;-65
2022/07/11 07:41:55;;;;;;;7.05;5.80;;;;;;;18.82;73.41;102198.97;3600379;39;20077;-65
2022/07/11 07:44:20;;;;;;;9.45;5.70;;;;;;;18.91;72.58;102198.28;3598786;39;20066;-65
2022/07/11 07:46:46;;;;;;;7.25;5.50;;;;;;;18.93;71.61;102197.16;3601235;39;20051;-65
2022/07/11 07:49:12;;;;;;;8.98;6.05;;;;;;;18.92;70.89;102186.38;3600088;39;20179;-65
2022/07/11 07:51:38;;;;;;;9.82;5.18;;;;;;;19.14;70.48;102205.56;3601128;39;20071;-65
2022/07/11 07:54:03;;;;;;;7.00;5.85;;;;;;;19.26;69.14;102214.69;3598877;39;20048;-65
2022/07/11 07:56:29;;;;;;;7.40;6.18;;;;;;;19.28;69.53;102196.31;3599473;39;20047;-65
2022/07/11 07:58:55;;;;;;;6.05;5.45;;;;;;;19.34;69.45;102211.34;3598948;39;20059;-65
2022/07/11 08:01:36;;;;;;;6.03;4.80;;;;;;;19.34;69.65;102216.81;3599116;39;20093;-65
2022/07/11 08:04:07;;;;;;;6.07;5.10;;;;;;;19.45;68.51;102219.59;3597787;39;20047;-65
2022/07/11 08:06:34;;;;;;;5.30;4.80;;;;;;;19.58;68.34;102216.78;3599130;39;20376;-65
2022/07/11 08:09:01;;;;;;;5.40;4.90;;;;;;;19.67;67.57;102221.56;3597969;39;20366;-64
2022/07/11 08:11:27;;;;;;;5.60;4.90;;;;;;;19.74;67.30;102219.22;3598643;39;20059;-65
2022/07/11 08:13:53;;;;;;;5.63;4.75;;;;;;;19.81;66.19;102217.72;3598665;39;20078;-64
2022/07/11 08:16:20;;;;;;;6.85;5.47;;;;;;;19.87;67.28;102220.84;3600312;39;20414;-64
2022/07/11 08:18:46;;;;;;;6.25;4.70;;;;;;;19.89;66.69;102218.00;3599422;39;20116;-65
2022/07/11 08:21:12;;;;;;;5.65;4.93;;;;;;;19.88;66.44;102222.56;3600348;39;20058;-65
2022/07/11 08:23:38;;;;;;;5.32;4.50;;;;;;;19.89;66.65;102218.00;3600299;39;20059;-65
2022/07/11 08:26:04;;;;;;;5.30;4.78;;;;;;;19.87;66.13;102206.34;3595413;39;20058;-65
2022/07/11 08:28:30;;;;;;;6.88;4.43;;;;;;;19.91;66.85;102224.19;3600584;39;20520;-64
2022/07/11 08:30:56;;;;;;;4.70;4.30;;;;;;;19.93;66.04;102219.50;3600908;39;20062;-64
2022/07/11 08:33:21;;;;;;;5.32;3.97;;;;;;;19.90;67.09;102222.47;3598293;39;20288;-64
2022/07/11 08:35:47;;;;;;;4.30;3.90;;;;;;;19.76;66.64;102206.28;3597700;39;20051;-64
2022/07/11 08:38:13;;;;;;;4.75;4.28;;;;;;;19.85;66.95;102227.41;3598085;39;20293;-64
2022/07/11 08:40:45;;;;;;;6.68;5.70;;;;;;;19.94;67.42;102223.94;3598825;39;20055;-64
2022/07/11 08:43:17;;;;;;;7.32;5.43;;;;;;;20.01;66.04;102227.06;3594487;39;20052;-65
2022/07/11 08:45:44;;;;;;;6.22;5.43;;;;;;;20.03;67.68;102222.38;3598431;39;20062;-64
2022/07/11 08:48:12;;;;;;;7.10;6.20;;;;;;;20.02;67.52;102221.50;3599177;39;20043;-65
2022/07/11 08:50:38;;;;;;;8.05;6.38;;;;;;;20.07;67.12;102219.25;3603074;39;20047;-64
2022/07/11 08:53:05;;;;;;;9.18;6.13;;;;;;;20.13;66.65;102217.91;3597421;39;20406;-64
2022/07/11 08:55:31;;;;;;;8.65;6.45;;;;;;;20.10;66.59;102210.81;3600101;39;20055;-64
2022/07/11 08:57:58;;;;;;;7.95;6.53;;;;;;;20.18;66.81;102224.72;3602635;39;20048;-64
2022/07/11 09:00:24;;;;;;;7.78;6.70;;;;;;;20.16;67.06;102214.91;3590142;39;20116;-64
2022/07/11 09:02:53;;;;;;;9.32;7.53;;;;;;;20.27;66.95;102222.25;3601018;39;20051;-64
2022/07/11 09:05:18;;;;;;;11.80;7.65;;;;;;;20.20;67.34;102218.28;3601229;39;20074;-64
2022/07/11 09:07:48;;;;;;;7.57;6.47;;;;;;;20.25;67.22;102216.91;3603468;39;20094;-64
2022/07/11 09:10:16;;;;;;;10.57;7.95;;;;;;;20.25;66.13;102207.84;3599087;39;20052;-64
2022/07/11 09:13:08;;;;;;;11.77;7.70;;;;;;;20.39;66.07;102213.03;3602660;39;20062;-64
2022/07/11 09:15:50;;;;;;;10.32;8.18;;;;;;;20.37;66.87;102185.00;3601421;39;20394;-64
2022/07/11 09:18:28;;;;;;;10.10;7.95;;;;;;;20.70;65.78;102216.03;3598979;39;20279;-64
2022/07/11 09:26:38;;;;;;;8.32;7.35;;;;;;;21.20;63.33;102213.66;3600761;39;20062;-65
2022/07/11 09:29:09;;;;;;;8.57;7.20;;;;;;;21.47;62.66;102213.19;3601914;39;20412;-65
2022/07/11 09:31:39;;;;;;;8.10;6.90;;;;;;;21.73;62.78;102208.22;3601314;39;20058;-65
2022/07/11 09:34:15;;;;;;;9.95;7.55;;;;;;;21.92;60.02;102191.03;3599726;39;20055;-64
2022/07/11 09:36:51;;;;;;;8.73;7.10;;;;;;;22.20;59.71;102212.25;3602854;39;20058;-64
2022/07/11 09:39:19;;;;;;;12.27;7.90;;;;;;;22.31;58.76;102211.28;3601065;39;21870;-64
2022/07/11 09:41:47;;;;;;;9.25;7.18;;;;;;;22.36;58.72;102200.81;3600606;39;20055;-64
2022/07/11 09:44:22;;;;;;;9.18;7.60;;;;;;;22.45;59.17;102208.19;3600769;39;20047;-64
2022/07/11 09:46:53;;;;;;;8.90;7.32;;;;;;;22.55;58.19;102204.59;3596899;39;20055;-64
2022/07/11 09:49:35;;;;;;;9.60;7.40;;;;;;;22.55;57.78;102200.00;3599002;39;20647;-64
2022/07/11 09:52:13;;;;;;;8.48;7.10;;;;;;;22.50;58.25;102201.41;3596251;39;20082;-63
2022/07/11 09:55:01;;;;;;;7.68;6.90;;;;;;;22.41;58.07;102205.84;3600917;39;20095;-63
2022/07/11 09:57:40;;;;;;;9.63;7.32;;;;;;;22.29;59.10;102213.28;3596690;39;20094;-63
2022/07/11 10:00:10;;;;;;;9.85;7.68;;;;;;;22.06;59.04;102201.63;3595045;39;20054;-63
2022/07/11 10:02:36;;;;;;;10.10;7.30;;;;;;;22.01;59.32;102210.25;3599199;39;20077;-63
2022/07/11 10:05:03;;;;;;;8.60;7.40;;;;;;;21.80;59.91;102182.03;3599247;39;20425;-65
2022/07/11 10:07:29;;;;;;;9.82;7.40;;;;;;;21.85;60.15;102207.16;3596181;39;20402;-64
2022/07/11 10:10:01;;;;;;;9.32;7.65;;;;;;;21.77;60.78;102205.06;3596791;39;20058;-64
2022/07/11 10:12:29;;;;;;;11.73;7.80;;;;;;;21.68;61.13;102205.88;3597524;39;20392;-64
2022/07/11 10:15:18;;;;;;;8.00;7.18;;;;;;;21.60;61.78;102210.25;3597228;39;20059;-65
2022/07/11 10:18:50;;;;;;;10.45;8.13;;;;;;;21.49;63.84;102211.19;3600602;39;20382;-65
2022/07/11 10:21:30;;;;;;;10.30;8.20;;;;;;;21.51;62.82;102207.34;3597693;39;20051;-65
2022/07/11 10:24:42;;;;;;;8.05;6.85;;;;;;;21.52;62.57;102200.84;3600234;39;20059;-65
2022/07/11 10:27:28;;;;;;;10.32;7.22;;;;;;;21.43;63.21;102207.13;3601646;39;20279;-65
2022/07/11 10:29:54;;;;;;;10.68;7.50;;;;;;;21.55;62.74;102205.19;3600940;39;20055;-65
2022/07/11 10:32:20;;;;;;;9.15;7.30;;;;;;;21.68;62.09;102215.94;3598709;39;20051;-66
2022/07/11 10:35:08;;;;;;;9.40;7.50;;;;;;;21.87;62.58;102217.94;3599227;39;20055;-65
2022/07/11 10:37:50;;;;;;;9.88;7.00;;;;;;;21.96;61.42;102220.75;3601572;39;20051;-65
2022/07/11 10:40:47;;;;;;;11.35;7.38;;;;;;;22.05;60.40;102218.22;3596532;39;20074;-65
2022/07/11 10:43:20;;;;;;;11.40;7.50;;;;;;;22.10;60.08;102221.38;3597101;39;20040;-65
2022/07/11 10:45:58;;;;;;;8.57;7.38;;;;;;;22.00;60.59;102222.19;3598646;39;20051;-64
2022/07/11 10:48:27;;;;;;;9.65;7.18;;;;;;;22.04;60.59;102214.56;3599474;39;20067;-64
2022/07/11 10:51:19;;;;;;;8.27;6.72;;;;;;;22.15;61.28;102219.97;3600684;39;20112;-64
2022/07/11 10:53:52;;;;;;;8.30;7.10;;;;;;;22.36;60.43;102222.72;3593266;39;20047;-65
2022/07/11 10:56:57;;;;;;;14.13;11.82;;;;;;;22.53;59.62;102234.03;3599369;39;20063;-64
2022/07/11 10:59:23;;;;;;;9.07;6.88;;;;;;;22.53;59.25;102223.06;3569918;39;20129;-65
2022/07/11 11:02:12;;;;;;;12.73;7.60;;;;;;;22.66;59.47;102218.19;3599610;39;20103;-65
2022/07/11 11:04:58;;;;;;;9.88;6.70;;;;;;;22.66;59.25;102205.34;3598843;39;20063;-64
2022/07/11 11:07:46;;;;;;;7.45;6.70;;;;;;;22.72;58.33;102220.38;3599904;39;20076;-64
2022/07/11 11:10:20;;;;;;;7.28;6.03;;;;;;;22.11;58.99;102124.56;3600368;39;20567;-65
2022/07/11 11:13:10;;;;;;;8.98;6.75;;;;;;;22.45;59.74;102226.47;3600758;39;20051;-65
2022/07/11 11:15:42;;;;;;;7.68;5.72;;;;;;;22.39;59.72;102227.03;3596691;39;20330;-65
2022/07/11 11:18:25;;;;;;;8.48;5.70;;;;;;;22.25;59.43;102220.06;3598251;39;20283;-66
2022/07/11 11:21:00;;;;;;;11.45;6.15;;;;;;;22.22;59.62;102228.56;3599872;39;20404;-64
2022/07/11 11:23:36;;;;;;;9.15;5.55;;;;;;;22.13;59.71;102221.13;3597355;39;20111;-65
2022/07/11 11:26:14;;;;;;;5.38;4.88;;;;;;;22.13;60.12;102232.94;3597923;39;20414;-64
2022/07/11 11:29:01;;;;;;;6.28;4.78;;;;;;;22.12;61.01;102230.34;3599389;39;20063;-64
2022/07/11 11:31:31;;;;;;;6.47;5.43;;;;;;;22.09;60.64;102236.09;3599598;39;20350;-64
2022/07/11 11:33:57;;;;;;;11.20;6.93;;;;;;;22.19;60.34;102228.81;3600787;39;20055;-64